Main page
METAR-TAF:

METAR-TAF

Airports :

Waterford Airport

Waterford, Ireland

latitude: 52-11-14N, longitude: 7-05-13W, elevation: 36 m

Current weather observation

The report was made 31 minutes ago, at 08:30 UTC
Wind 9 kt from the East, varying between East/Northeast and Southeast
Temperature 8°C
Humidity 81%
Pressure 1025 hPa
Visibility 10 km or more
no clouds below 1500 m and no cumulonimbus

METAR: EIWF 180830Z 10009KT 060V130 CAVOK 08/05 Q1025

Time: 09:01 (09:01 UTC)

Forecast

The report was made 1 hour and 1 minutes ago, at 08:00 UTC
Forecast valid from 18 at 09 UTC to 18 at 18 UTC
Wind 8 kt from the East
Visibility 10 km or more
Few clouds at a height of 2000 ft
Becoming
from 18 at 09 UTC to 18 at 11 UTC
Wind 13 kt from the East/Southeast

TAF: EIWF 180800Z 1809/1818 10008KT 9999 FEW020 BECMG 1809/1811 11013KT

Weather observations and forecasts of more than 4000 airports (METAR and TAF reports).

The available stations are represented by yellow and red dots on the map.

Hover mouse over dot to see the name of the station.

Then click to see weather observations and forecasts.

To change the map : click on the green buttons with a black cross to zoom in, on the green button with a dash to zoom out, or on the green arrows for adjacent maps.


METAR-TAF: